Warning: file(http://tgftp.nws.noaa.gov/data/observations/metar/stations/LIPQ.TXT): failed to open stream: HTTP request failed! in /web/htdocs/www.ronchitower.it/home/includes/scelta-header.php on line 5

Warning: implode(): Invalid arguments passed in /web/htdocs/www.ronchitower.it/home/includes/scelta-header.php on line 5
Ronchi Tower
Ronchi Tower

Preflight Briefing

Seleziona un'area presente nel database oppure inserisci il codice ICAO desiderato.
In verde i METAR che riportano condizioni VMC (vis >= 5000m e ceiling >= 1500ft)
In giallo i METAR che riportano condizioni IMC da VFR Speciale (vis < 5000m e >= 1500m, ceiling < 1500ft)
In rosso i METAR che riportano fenomeni meteo significativi (TS, SN, GR, BCFG, MIFG) o condizioni IMC (vis < 1500m)

METAR & TAF area LIPQ

Ronchi dei Legionari

2021/03/01 19:20 LIPQ 011920Z AUTO 12003KT 090V170 9999 NCD 12/M02 Q1031
2021/03/01 18:25 TAF LIPQ 011700Z 0118/0218 09010KT CAVOK BECMG 0208/0210 VRB05KT

Trieste Stazione Meteo

2021/03/01 17:55 LIVT 011755Z 00000KT CAVOK 15/M02 Q1029 RMK SKC QUK / QUL / VIS MAR 20 KM VIS MIN 9999
No TAF found

Aviano

2021/03/01 18:55 LIPA 011855Z 02005KT CAVOK 07/01 Q1030 RMK SKC VIS MIN 9999 WIND THR05/////KT WIND THR23/////KT A3043 BLU
2015/11/03 12:24 TAF TAF LIPA 031100Z 0312/0324 VRB03KT CAVOK

Venezia Tessera

2021/03/01 19:20 LIPZ 011920Z 24005KT 120V280 CAVOK 09/00 Q1031 NOSIG
2021/03/01 18:21 TAF LIPZ 011700Z 0118/0224 VRB05KT CAVOK

Treviso S.Angelo

2021/03/01 19:20 LIPH 011920Z AUTO 28003KT 9999 NCD 11/M02 Q1031
2021/03/01 18:25 TAF LIPH 011700Z 0118/0218 VRB05KT CAVOK

Ljubljana

2021/03/01 19:30 LJLJ 011930Z VRB02KT CAVOK 06/M01 Q1033 NOSIG
2021/03/01 18:06 TAF LJLJ 011700Z 0118/0218 VRB02KT CAVOK

Portoroz

2021/03/01 19:30 LJPZ 011930Z 13004KT 040V170 CAVOK 06/01 Q1031
2020/09/27 12:21 TAF TAF LJPZ 271100Z 2712/2821 30003KT 9999 FEW050 PROB30 TEMPO 2712/2718 -SHRA SCT040TCU BKN070 BECMG 2718/2720 06012G25KT RA